sensor_id;sensor_type;location;lat;lon;timestamp;P1;durP1;ratioP1;P2;durP2;ratioP2
55655;SDS011;41530;52.382;5.270;2022-12-07T00:01:22;3.08;;;0.70;;
55655;SDS011;41530;52.382;5.270;2022-12-07T00:03:51;1.27;;;0.63;;
55655;SDS011;41530;52.382;5.270;2022-12-07T00:06:20;1.38;;;0.60;;
55655;SDS011;41530;52.382;5.270;2022-12-07T00:08:47;2.13;;;0.70;;
55655;SDS011;41530;52.382;5.270;2022-12-07T00:11:15;1.02;;;0.55;;
55655;SDS011;41530;52.382;5.270;2022-12-07T00:13:44;1.27;;;0.75;;
55655;SDS011;41530;52.382;5.270;2022-12-07T00:16:13;1.30;;;0.60;;
55655;SDS011;41530;52.382;5.270;2022-12-07T00:18:41;2.63;;;0.70;;
55655;SDS011;41530;52.382;5.270;2022-12-07T00:21:10;2.00;;;0.57;;
55655;SDS011;41530;52.382;5.270;2022-12-07T00:23:41;1.30;;;0.68;;
55655;SDS011;41530;52.382;5.270;2022-12-07T00:26:10;1.75;;;0.60;;
55655;SDS011;41530;52.382;5.270;2022-12-07T00:28:39;1.70;;;0.60;;
55655;SDS011;41530;52.382;5.270;2022-12-07T00:31:08;2.30;;;0.70;;
55655;SDS011;41530;52.382;5.270;2022-12-07T00:33:37;1.60;;;0.70;;
55655;SDS011;41530;52.382;5.270;2022-12-07T00:36:08;2.28;;;0.73;;
55655;SDS011;41530;52.382;5.270;2022-12-07T00:38:37;2.28;;;0.70;;
55655;SDS011;41530;52.382;5.270;2022-12-07T00:41:06;2.65;;;0.85;;
55655;SDS011;41530;52.382;5.270;2022-12-07T00:43:37;1.67;;;0.77;;
55655;SDS011;41530;52.382;5.270;2022-12-07T00:46:05;1.85;;;0.70;;
55655;SDS011;41530;52.382;5.270;2022-12-07T00:48:32;2.42;;;0.70;;
55655;SDS011;41530;52.382;5.270;2022-12-07T00:50:59;1.85;;;0.70;;
55655;SDS011;41530;52.382;5.270;2022-12-07T00:53:26;1.48;;;0.57;;
55655;SDS011;41530;52.382;5.270;2022-12-07T00:55:54;4.10;;;0.88;;
55655;SDS011;41530;52.382;5.270;2022-12-07T00:58:22;1.95;;;0.85;;
55655;SDS011;41530;52.382;5.270;2022-12-07T01:00:50;2.42;;;0.70;;
55655;SDS011;41530;52.382;5.270;2022-12-07T01:03:17;2.25;;;0.70;;
55655;SDS011;41530;52.382;5.270;2022-12-07T01:05:50;3.03;;;0.90;;
55655;SDS011;41530;52.382;5.270;2022-12-07T01:08:19;3.67;;;0.82;;
55655;SDS011;41530;52.382;5.270;2022-12-07T01:10:47;2.22;;;0.60;;
55655;SDS011;41530;52.382;5.270;2022-12-07T01:13:15;2.08;;;0.52;;
55655;SDS011;41530;52.382;5.270;2022-12-07T01:15:43;3.33;;;0.70;;
55655;SDS011;41530;52.382;5.270;2022-12-07T01:18:11;1.95;;;0.85;;
55655;SDS011;41530;52.382;5.270;2022-12-07T01:20:37;2.40;;;0.88;;
55655;SDS011;41530;52.382;5.270;2022-12-07T01:23:04;1.77;;;0.70;;
55655;SDS011;41530;52.382;5.270;2022-12-07T01:25:31;3.20;;;0.77;;
55655;SDS011;41530;52.382;5.270;2022-12-07T01:27:58;2.92;;;0.88;;
55655;SDS011;41530;52.382;5.270;2022-12-07T01:30:24;5.10;;;0.80;;
55655;SDS011;41530;52.382;5.270;2022-12-07T01:32:51;1.65;;;0.70;;
55655;SDS011;41530;52.382;5.270;2022-12-07T01:35:17;3.13;;;0.80;;
55655;SDS011;41530;52.382;5.270;2022-12-07T01:37:44;1.77;;;0.57;;
55655;SDS011;41530;52.382;5.270;2022-12-07T01:40:10;3.45;;;0.65;;
55655;SDS011;41530;52.382;5.270;2022-12-07T01:42:37;1.58;;;0.60;;
55655;SDS011;41530;52.382;5.270;2022-12-07T01:48:07;2.00;;;0.60;;
55655;SDS011;41530;52.382;5.270;2022-12-07T01:50:35;1.25;;;0.68;;
55655;SDS011;41530;52.382;5.270;2022-12-07T01:53:04;1.30;;;0.60;;
55655;SDS011;41530;52.382;5.270;2022-12-07T01:55:35;1.67;;;0.60;;
55655;SDS011;41530;52.382;5.270;2022-12-07T01:58:06;3.17;;;0.70;;
55655;SDS011;41530;52.382;5.270;2022-12-07T02:00:34;1.45;;;0.50;;
55655;SDS011;41530;52.382;5.270;2022-12-07T02:03:06;1.08;;;0.50;;
55655;SDS011;41530;52.382;5.270;2022-12-07T02:05:37;4.57;;;0.63;;
55655;SDS011;41530;52.382;5.270;2022-12-07T02:08:06;1.23;;;0.50;;
55655;SDS011;41530;52.382;5.270;2022-12-07T02:10:35;1.38;;;0.50;;
55655;SDS011;41530;52.382;5.270;2022-12-07T02:13:06;2.08;;;0.60;;
55655;SDS011;41530;52.382;5.270;2022-12-07T02:21:51;1.48;;;0.40;;
55655;SDS011;41530;52.382;5.270;2022-12-07T02:27:11;2.22;;;0.45;;
55655;SDS011;41530;52.382;5.270;2022-12-07T02:30:08;1.58;;;0.55;;
55655;SDS011;41530;52.382;5.270;2022-12-07T02:35:33;1.88;;;0.60;;
55655;SDS011;41530;52.382;5.270;2022-12-07T02:38:10;1.63;;;0.60;;
55655;SDS011;41530;52.382;5.270;2022-12-07T02:40:43;1.75;;;0.50;;
55655;SDS011;41530;52.382;5.270;2022-12-07T02:43:16;3.33;;;0.70;;
55655;SDS011;41530;52.382;5.270;2022-12-07T02:48:18;1.95;;;0.55;;
55655;SDS011;41530;52.382;5.270;2022-12-07T02:50:50;0.85;;;0.32;;
55655;SDS011;41530;52.382;5.270;2022-12-07T02:53:34;2.65;;;0.50;;
55655;SDS011;41530;52.382;5.270;2022-12-07T02:56:23;2.78;;;0.60;;
55655;SDS011;41530;52.382;5.270;2022-12-07T03:07:21;1.20;;;0.50;;
55655;SDS011;41530;52.382;5.270;2022-12-07T03:18:20;1.65;;;0.52;;
55655;SDS011;41530;52.382;5.270;2022-12-07T03:20:49;2.50;;;0.70;;
55655;SDS011;41530;52.382;5.270;2022-12-07T03:23:19;1.85;;;0.47;;
55655;SDS011;41530;52.382;5.270;2022-12-07T03:25:49;4.40;;;0.60;;
55655;SDS011;41530;52.382;5.270;2022-12-07T03:28:26;0.70;;;0.40;;
55655;SDS011;41530;52.382;5.270;2022-12-07T03:36:47;3.88;;;0.50;;
55655;SDS011;41530;52.382;5.270;2022-12-07T03:39:35;1.27;;;0.40;;
55655;SDS011;41530;52.382;5.270;2022-12-07T03:42:07;0.77;;;0.40;;
55655;SDS011;41530;52.382;5.270;2022-12-07T03:44:36;1.58;;;0.52;;
55655;SDS011;41530;52.382;5.270;2022-12-07T03:50:00;2.08;;;0.45;;
55655;SDS011;41530;52.382;5.270;2022-12-07T03:52:36;2.70;;;0.40;;
55655;SDS011;41530;52.382;5.270;2022-12-07T03:57:47;1.75;;;0.45;;
55655;SDS011;41530;52.382;5.270;2022-12-07T04:00:18;0.45;;;0.32;;
55655;SDS011;41530;52.382;5.270;2022-12-07T04:02:45;1.50;;;0.45;;
55655;SDS011;41530;52.382;5.270;2022-12-07T04:05:13;1.83;;;0.40;;
55655;SDS011;41530;52.382;5.270;2022-12-07T04:07:39;1.20;;;0.40;;
55655;SDS011;41530;52.382;5.270;2022-12-07T04:10:07;0.88;;;0.40;;
55655;SDS011;41530;52.382;5.270;2022-12-07T04:12:34;2.60;;;0.52;;
55655;SDS011;41530;52.382;5.270;2022-12-07T04:15:02;2.00;;;0.60;;
55655;SDS011;41530;52.382;5.270;2022-12-07T04:17:29;0.47;;;0.40;;
55655;SDS011;41530;52.382;5.270;2022-12-07T04:19:56;1.33;;;0.43;;
55655;SDS011;41530;52.382;5.270;2022-12-07T04:22:23;1.25;;;0.35;;
55655;SDS011;41530;52.382;5.270;2022-12-07T04:24:49;1.48;;;0.30;;
55655;SDS011;41530;52.382;5.270;2022-12-07T04:27:16;2.10;;;0.57;;
55655;SDS011;41530;52.382;5.270;2022-12-07T04:29:43;2.47;;;0.50;;
55655;SDS011;41530;52.382;5.270;2022-12-07T04:32:09;2.80;;;0.50;;
55655;SDS011;41530;52.382;5.270;2022-12-07T04:34:36;2.67;;;0.60;;
55655;SDS011;41530;52.382;5.270;2022-12-07T04:37:03;2.63;;;0.50;;
55655;SDS011;41530;52.382;5.270;2022-12-07T04:39:31;3.08;;;0.57;;
55655;SDS011;41530;52.382;5.270;2022-12-07T04:41:59;2.70;;;0.60;;
55655;SDS011;41530;52.382;5.270;2022-12-07T04:44:27;2.15;;;0.47;;
55655;SDS011;41530;52.382;5.270;2022-12-07T04:46:54;1.75;;;0.43;;
55655;SDS011;41530;52.382;5.270;2022-12-07T04:49:22;3.22;;;0.60;;
55655;SDS011;41530;52.382;5.270;2022-12-07T04:51:50;3.88;;;0.50;;
55655;SDS011;41530;52.382;5.270;2022-12-07T04:54:16;1.10;;;0.40;;
55655;SDS011;41530;52.382;5.270;2022-12-07T04:56:43;3.50;;;0.60;;
55655;SDS011;41530;52.382;5.270;2022-12-07T04:59:11;1.65;;;0.40;;
55655;SDS011;41530;52.382;5.270;2022-12-07T05:01:39;2.15;;;0.55;;
55655;SDS011;41530;52.382;5.270;2022-12-07T05:04:07;2.38;;;0.50;;
55655;SDS011;41530;52.382;5.270;2022-12-07T05:06:35;1.02;;;0.32;;
55655;SDS011;41530;52.382;5.270;2022-12-07T05:09:02;1.70;;;0.50;;
55655;SDS011;41530;52.382;5.270;2022-12-07T05:11:30;1.63;;;0.40;;
55655;SDS011;41530;52.382;5.270;2022-12-07T05:16:38;1.60;;;0.32;;
55655;SDS011;41530;52.382;5.270;2022-12-07T05:19:05;1.25;;;0.40;;
55655;SDS011;41530;52.382;5.270;2022-12-07T05:21:32;4.65;;;0.63;;
55655;SDS011;41530;52.382;5.270;2022-12-07T05:23:59;2.35;;;0.50;;
55655;SDS011;41530;52.382;5.270;2022-12-07T05:26:26;3.78;;;0.60;;
55655;SDS011;41530;52.382;5.270;2022-12-07T05:28:54;0.82;;;0.38;;
55655;SDS011;41530;52.382;5.270;2022-12-07T05:31:22;1.83;;;0.30;;
55655;SDS011;41530;52.382;5.270;2022-12-07T05:33:51;1.20;;;0.50;;
55655;SDS011;41530;52.382;5.270;2022-12-07T05:36:18;2.30;;;0.40;;
55655;SDS011;41530;52.382;5.270;2022-12-07T05:38:46;3.63;;;0.55;;
55655;SDS011;41530;52.382;5.270;2022-12-07T05:41:15;2.05;;;0.63;;
55655;SDS011;41530;52.382;5.270;2022-12-07T05:44:02;4.05;;;0.50;;
55655;SDS011;41530;52.382;5.270;2022-12-07T05:46:29;1.95;;;0.50;;
55655;SDS011;41530;52.382;5.270;2022-12-07T05:48:56;1.23;;;0.30;;
55655;SDS011;41530;52.382;5.270;2022-12-07T05:51:23;3.60;;;0.50;;
55655;SDS011;41530;52.382;5.270;2022-12-07T05:53:50;2.25;;;0.50;;
55655;SDS011;41530;52.382;5.270;2022-12-07T05:56:16;1.08;;;0.40;;
55655;SDS011;41530;52.382;5.270;2022-12-07T05:58:44;2.42;;;0.45;;
55655;SDS011;41530;52.382;5.270;2022-12-07T06:01:29;2.17;;;0.50;;
55655;SDS011;41530;52.382;5.270;2022-12-07T06:03:56;1.85;;;0.30;;
55655;SDS011;41530;52.382;5.270;2022-12-07T06:06:22;3.35;;;0.52;;
55655;SDS011;41530;52.382;5.270;2022-12-07T06:08:49;4.57;;;0.70;;
55655;SDS011;41530;52.382;5.270;2022-12-07T06:11:16;2.60;;;0.50;;
55655;SDS011;41530;52.382;5.270;2022-12-07T06:14:01;3.95;;;0.52;;
55655;SDS011;41530;52.382;5.270;2022-12-07T06:16:27;1.10;;;0.38;;
55655;SDS011;41530;52.382;5.270;2022-12-07T06:18:54;1.27;;;0.40;;
55655;SDS011;41530;52.382;5.270;2022-12-07T06:21:21;2.22;;;0.40;;
55655;SDS011;41530;52.382;5.270;2022-12-07T06:23:48;2.70;;;0.50;;
55655;SDS011;41530;52.382;5.270;2022-12-07T06:26:15;2.47;;;0.50;;
55655;SDS011;41530;52.382;5.270;2022-12-07T06:28:42;1.30;;;0.30;;
55655;SDS011;41530;52.382;5.270;2022-12-07T06:31:08;0.70;;;0.32;;
55655;SDS011;41530;52.382;5.270;2022-12-07T06:33:39;2.47;;;0.45;;
55655;SDS011;41530;52.382;5.270;2022-12-07T06:36:06;0.80;;;0.30;;
55655;SDS011;41530;52.382;5.270;2022-12-07T06:38:33;1.17;;;0.30;;
55655;SDS011;41530;52.382;5.270;2022-12-07T06:41:00;1.80;;;0.22;;
55655;SDS011;41530;52.382;5.270;2022-12-07T06:43:26;1.65;;;0.30;;
55655;SDS011;41530;52.382;5.270;2022-12-07T06:45:53;1.63;;;0.50;;
55655;SDS011;41530;52.382;5.270;2022-12-07T06:48:20;4.63;;;0.90;;
55655;SDS011;41530;52.382;5.270;2022-12-07T06:50:47;4.53;;;0.90;;
55655;SDS011;41530;52.382;5.270;2022-12-07T06:53:20;2.22;;;0.80;;
55655;SDS011;41530;52.382;5.270;2022-12-07T06:55:46;4.70;;;1.00;;
55655;SDS011;41530;52.382;5.270;2022-12-07T06:58:13;6.65;;;0.93;;
55655;SDS011;41530;52.382;5.270;2022-12-07T07:00:39;9.23;;;1.00;;
55655;SDS011;41530;52.382;5.270;2022-12-07T07:03:06;4.68;;;1.13;;
55655;SDS011;41530;52.382;5.270;2022-12-07T07:05:33;5.70;;;1.38;;
55655;SDS011;41530;52.382;5.270;2022-12-07T07:08:00;5.68;;;0.98;;
55655;SDS011;41530;52.382;5.270;2022-12-07T07:10:47;3.38;;;1.02;;
55655;SDS011;41530;52.382;5.270;2022-12-07T07:13:14;5.20;;;1.35;;
55655;SDS011;41530;52.382;5.270;2022-12-07T07:15:40;6.10;;;1.27;;
55655;SDS011;41530;52.382;5.270;2022-12-07T07:18:07;9.88;;;1.30;;
55655;SDS011;41530;52.382;5.270;2022-12-07T07:20:34;4.25;;;0.80;;
55655;SDS011;41530;52.382;5.270;2022-12-07T07:23:02;3.58;;;1.08;;
55655;SDS011;41530;52.382;5.270;2022-12-07T07:25:29;3.28;;;0.75;;
55655;SDS011;41530;52.382;5.270;2022-12-07T07:27:55;3.20;;;0.73;;
55655;SDS011;41530;52.382;5.270;2022-12-07T07:30:23;2.42;;;0.73;;
55655;SDS011;41530;52.382;5.270;2022-12-07T07:32:50;4.65;;;0.90;;
55655;SDS011;41530;52.382;5.270;2022-12-07T07:35:16;2.35;;;0.90;;
55655;SDS011;41530;52.382;5.270;2022-12-07T07:37:43;6.82;;;0.75;;
55655;SDS011;41530;52.382;5.270;2022-12-07T07:40:10;3.83;;;0.90;;
55655;SDS011;41530;52.382;5.270;2022-12-07T07:42:37;2.83;;;0.90;;
55655;SDS011;41530;52.382;5.270;2022-12-07T07:45:04;2.67;;;0.80;;
55655;SDS011;41530;52.382;5.270;2022-12-07T07:47:31;1.23;;;0.60;;
55655;SDS011;41530;52.382;5.270;2022-12-07T07:49:57;2.35;;;0.88;;
55655;SDS011;41530;52.382;5.270;2022-12-07T07:52:25;2.90;;;0.73;;
55655;SDS011;41530;52.382;5.270;2022-12-07T07:54:51;2.90;;;1.10;;
55655;SDS011;41530;52.382;5.270;2022-12-07T07:57:19;1.95;;;0.65;;
55655;SDS011;41530;52.382;5.270;2022-12-07T07:59:46;3.75;;;0.60;;
55655;SDS011;41530;52.382;5.270;2022-12-07T08:02:16;2.72;;;0.85;;
55655;SDS011;41530;52.382;5.270;2022-12-07T08:04:44;3.20;;;0.80;;
55655;SDS011;41530;52.382;5.270;2022-12-07T08:07:12;1.92;;;0.73;;
55655;SDS011;41530;52.382;5.270;2022-12-07T08:09:39;4.22;;;0.80;;
55655;SDS011;41530;52.382;5.270;2022-12-07T08:12:06;2.00;;;0.60;;
55655;SDS011;41530;52.382;5.270;2022-12-07T08:14:33;1.85;;;0.50;;
55655;SDS011;41530;52.382;5.270;2022-12-07T08:17:00;2.22;;;0.63;;
55655;SDS011;41530;52.382;5.270;2022-12-07T08:19:27;1.17;;;0.50;;
55655;SDS011;41530;52.382;5.270;2022-12-07T08:21:54;1.88;;;0.50;;
55655;SDS011;41530;52.382;5.270;2022-12-07T08:24:22;4.50;;;0.68;;
55655;SDS011;41530;52.382;5.270;2022-12-07T08:26:52;1.38;;;0.40;;
55655;SDS011;41530;52.382;5.270;2022-12-07T08:29:18;2.45;;;0.70;;
55655;SDS011;41530;52.382;5.270;2022-12-07T08:31:45;2.60;;;0.60;;
55655;SDS011;41530;52.382;5.270;2022-12-07T08:34:12;1.75;;;0.50;;
55655;SDS011;41530;52.382;5.270;2022-12-07T08:36:39;3.30;;;0.60;;
55655;SDS011;41530;52.382;5.270;2022-12-07T08:39:06;3.05;;;0.70;;
55655;SDS011;41530;52.382;5.270;2022-12-07T08:41:53;2.28;;;0.57;;
55655;SDS011;41530;52.382;5.270;2022-12-07T08:44:19;1.15;;;0.50;;
55655;SDS011;41530;52.382;5.270;2022-12-07T08:46:51;1.67;;;0.57;;
55655;SDS011;41530;52.382;5.270;2022-12-07T08:49:32;2.38;;;0.60;;
55655;SDS011;41530;52.382;5.270;2022-12-07T08:52:02;0.82;;;0.30;;
55655;SDS011;41530;52.382;5.270;2022-12-07T08:54:31;1.33;;;0.45;;
55655;SDS011;41530;52.382;5.270;2022-12-07T08:57:01;2.30;;;0.30;;
55655;SDS011;41530;52.382;5.270;2022-12-07T08:59:29;1.25;;;0.55;;
55655;SDS011;41530;52.382;5.270;2022-12-07T09:01:56;0.82;;;0.35;;
55655;SDS011;41530;52.382;5.270;2022-12-07T09:04:22;1.13;;;0.40;;
55655;SDS011;41530;52.382;5.270;2022-12-07T09:06:49;1.08;;;0.35;;
55655;SDS011;41530;52.382;5.270;2022-12-07T09:09:16;1.10;;;0.40;;
55655;SDS011;41530;52.382;5.270;2022-12-07T09:11:43;0.68;;;0.32;;
55655;SDS011;41530;52.382;5.270;2022-12-07T09:14:11;0.50;;;0.30;;
55655;SDS011;41530;52.382;5.270;2022-12-07T09:16:39;1.20;;;0.50;;
55655;SDS011;41530;52.382;5.270;2022-12-07T09:19:07;1.13;;;0.43;;
55655;SDS011;41530;52.382;5.270;2022-12-07T09:21:34;0.70;;;0.30;;
55655;SDS011;41530;52.382;5.270;2022-12-07T09:24:01;0.75;;;0.40;;
55655;SDS011;41530;52.382;5.270;2022-12-07T09:26:28;1.67;;;0.60;;
55655;SDS011;41530;52.382;5.270;2022-12-07T09:28:54;1.55;;;0.40;;
55655;SDS011;41530;52.382;5.270;2022-12-07T09:31:21;0.70;;;0.30;;
55655;SDS011;41530;52.382;5.270;2022-12-07T09:33:56;1.45;;;0.45;;
55655;SDS011;41530;52.382;5.270;2022-12-07T09:36:25;2.72;;;0.30;;
55655;SDS011;41530;52.382;5.270;2022-12-07T09:38:53;1.50;;;0.40;;
55655;SDS011;41530;52.382;5.270;2022-12-07T09:41:19;0.68;;;0.43;;
55655;SDS011;41530;52.382;5.270;2022-12-07T09:43:48;1.52;;;0.55;;
55655;SDS011;41530;52.382;5.270;2022-12-07T09:46:15;1.20;;;0.65;;
55655;SDS011;41530;52.382;5.270;2022-12-07T09:48:44;0.88;;;0.30;;
55655;SDS011;41530;52.382;5.270;2022-12-07T09:53:51;1.27;;;0.38;;
55655;SDS011;41530;52.382;5.270;2022-12-07T09:56:19;1.27;;;0.30;;
55655;SDS011;41530;52.382;5.270;2022-12-07T09:58:47;0.65;;;0.30;;
55655;SDS011;41530;52.382;5.270;2022-12-07T10:01:17;1.88;;;0.50;;
55655;SDS011;41530;52.382;5.270;2022-12-07T10:03:52;1.23;;;0.43;;
55655;SDS011;41530;52.382;5.270;2022-12-07T10:06:20;0.70;;;0.32;;
55655;SDS011;41530;52.382;5.270;2022-12-07T10:08:48;1.40;;;0.43;;
55655;SDS011;41530;52.382;5.270;2022-12-07T10:11:14;0.77;;;0.40;;
55655;SDS011;41530;52.382;5.270;2022-12-07T10:13:49;1.10;;;0.40;;
55655;SDS011;41530;52.382;5.270;2022-12-07T10:19:03;0.82;;;0.30;;
55655;SDS011;41530;52.382;5.270;2022-12-07T10:22:05;0.30;;;0.20;;
55655;SDS011;41530;52.382;5.270;2022-12-07T10:24:37;0.80;;;0.25;;
55655;SDS011;41530;52.382;5.270;2022-12-07T10:27:19;0.75;;;0.32;;
55655;SDS011;41530;52.382;5.270;2022-12-07T10:29:50;0.65;;;0.32;;
55655;SDS011;41530;52.382;5.270;2022-12-07T10:34:44;0.50;;;0.30;;
55655;SDS011;41530;52.382;5.270;2022-12-07T10:37:18;0.32;;;0.30;;
55655;SDS011;41530;52.382;5.270;2022-12-07T10:39:53;0.88;;;0.20;;
55655;SDS011;41530;52.382;5.270;2022-12-07T10:42:24;1.38;;;0.30;;
55655;SDS011;41530;52.382;5.270;2022-12-07T10:45:08;1.40;;;0.38;;
55655;SDS011;41530;52.382;5.270;2022-12-07T10:50:31;1.00;;;0.30;;
55655;SDS011;41530;52.382;5.270;2022-12-07T11:04:59;0.50;;;0.35;;
55655;SDS011;41530;52.382;5.270;2022-12-07T11:13:37;0.45;;;0.20;;
55655;SDS011;41530;52.382;5.270;2022-12-07T11:18:32;0.50;;;0.30;;
55655;SDS011;41530;52.382;5.270;2022-12-07T11:21:18;5.07;;;0.40;;
55655;SDS011;41530;52.382;5.270;2022-12-07T11:23:56;0.55;;;0.20;;
55655;SDS011;41530;52.382;5.270;2022-12-07T11:27:04;0.85;;;0.28;;
55655;SDS011;41530;52.382;5.270;2022-12-07T11:29:59;2.70;;;0.40;;
55655;SDS011;41530;52.382;5.270;2022-12-07T11:32:55;0.40;;;0.25;;
55655;SDS011;41530;52.382;5.270;2022-12-07T11:38:22;1.00;;;0.30;;
55655;SDS011;41530;52.382;5.270;2022-12-07T11:40:59;0.57;;;0.30;;
55655;SDS011;41530;52.382;5.270;2022-12-07T11:44:02;1.08;;;0.47;;
55655;SDS011;41530;52.382;5.270;2022-12-07T11:46:58;0.63;;;0.20;;
55655;SDS011;41530;52.382;5.270;2022-12-07T11:52:22;0.25;;;0.20;;
55655;SDS011;41530;52.382;5.270;2022-12-07T11:54:56;0.52;;;0.30;;
55655;SDS011;41530;52.382;5.270;2022-12-07T11:57:28;0.68;;;0.32;;
55655;SDS011;41530;52.382;5.270;2022-12-07T12:00:05;0.85;;;0.30;;
55655;SDS011;41530;52.382;5.270;2022-12-07T12:05:21;0.52;;;0.30;;
55655;SDS011;41530;52.382;5.270;2022-12-07T12:07:53;0.60;;;0.20;;
55655;SDS011;41530;52.382;5.270;2022-12-07T12:19:37;0.45;;;0.35;;
55655;SDS011;41530;52.382;5.270;2022-12-07T12:22:12;0.30;;;0.17;;
55655;SDS011;41530;52.382;5.270;2022-12-07T12:24:44;1.08;;;0.32;;
55655;SDS011;41530;52.382;5.270;2022-12-07T12:27:23;2.33;;;0.30;;
55655;SDS011;41530;52.382;5.270;2022-12-07T12:29:57;0.43;;;0.25;;
55655;SDS011;41530;52.382;5.270;2022-12-07T12:38:47;1.13;;;0.30;;
55655;SDS011;41530;52.382;5.270;2022-12-07T12:40:57;0.60;;;0.20;;
55655;SDS011;41530;52.382;5.270;2022-12-07T12:43:40;0.57;;;0.30;;
55655;SDS011;41530;52.382;5.270;2022-12-07T12:51:42;0.47;;;0.30;;
55655;SDS011;41530;52.382;5.270;2022-12-07T12:54:19;1.75;;;0.60;;
55655;SDS011;41530;52.382;5.270;2022-12-07T12:59:24;2.08;;;0.30;;
55655;SDS011;41530;52.382;5.270;2022-12-07T13:01:56;1.25;;;0.40;;
55655;SDS011;41530;52.382;5.270;2022-12-07T13:04:51;0.65;;;0.30;;
55655;SDS011;41530;52.382;5.270;2022-12-07T13:15:41;0.65;;;0.30;;
55655;SDS011;41530;52.382;5.270;2022-12-07T13:23:55;0.80;;;0.45;;
55655;SDS011;41530;52.382;5.270;2022-12-07T13:29:20;0.60;;;0.28;;
55655;SDS011;41530;52.382;5.270;2022-12-07T13:31:56;0.88;;;0.30;;
55655;SDS011;41530;52.382;5.270;2022-12-07T13:34:38;0.55;;;0.30;;
55655;SDS011;41530;52.382;5.270;2022-12-07T13:39:45;1.60;;;0.40;;
55655;SDS011;41530;52.382;5.270;2022-12-07T13:42:30;0.73;;;0.30;;
55655;SDS011;41530;52.382;5.270;2022-12-07T13:45:00;0.52;;;0.30;;
55655;SDS011;41530;52.382;5.270;2022-12-07T13:47:48;0.38;;;0.30;;
55655;SDS011;41530;52.382;5.270;2022-12-07T13:52:59;3.53;;;0.40;;
55655;SDS011;41530;52.382;5.270;2022-12-07T13:55:28;0.68;;;0.30;;
55655;SDS011;41530;52.382;5.270;2022-12-07T13:57:55;0.20;;;0.20;;
55655;SDS011;41530;52.382;5.270;2022-12-07T14:00:23;1.73;;;0.45;;
55655;SDS011;41530;52.382;5.270;2022-12-07T14:02:58;0.50;;;0.30;;
55655;SDS011;41530;52.382;5.270;2022-12-07T14:05:38;0.15;;;0.15;;
55655;SDS011;41530;52.382;5.270;2022-12-07T14:10:40;0.25;;;0.20;;
55655;SDS011;41530;52.382;5.270;2022-12-07T14:16:00;0.63;;;0.40;;
55655;SDS011;41530;52.382;5.270;2022-12-07T14:18:39;0.55;;;0.20;;
55655;SDS011;41530;52.382;5.270;2022-12-07T14:23:39;0.65;;;0.17;;
55655;SDS011;41530;52.382;5.270;2022-12-07T14:28:34;0.55;;;0.40;;
55655;SDS011;41530;52.382;5.270;2022-12-07T14:31:03;1.13;;;0.22;;
55655;SDS011;41530;52.382;5.270;2022-12-07T14:33:34;0.50;;;0.22;;
55655;SDS011;41530;52.382;5.270;2022-12-07T14:36:01;0.65;;;0.30;;
55655;SDS011;41530;52.382;5.270;2022-12-07T14:38:27;0.63;;;0.28;;
55655;SDS011;41530;52.382;5.270;2022-12-07T14:40:54;0.77;;;0.28;;
55655;SDS011;41530;52.382;5.270;2022-12-07T14:43:41;0.28;;;0.20;;
55655;SDS011;41530;52.382;5.270;2022-12-07T14:46:27;1.67;;;0.30;;
55655;SDS011;41530;52.382;5.270;2022-12-07T14:48:54;1.52;;;0.40;;
55655;SDS011;41530;52.382;5.270;2022-12-07T14:51:44;1.13;;;0.20;;
55655;SDS011;41530;52.382;5.270;2022-12-07T14:54:33;0.25;;;0.20;;
55655;SDS011;41530;52.382;5.270;2022-12-07T14:56:59;1.88;;;0.38;;
55655;SDS011;41530;52.382;5.270;2022-12-07T14:59:26;0.88;;;0.38;;
55655;SDS011;41530;52.382;5.270;2022-12-07T15:01:53;1.15;;;0.40;;
55655;SDS011;41530;52.382;5.270;2022-12-07T15:04:19;0.57;;;0.32;;
55655;SDS011;41530;52.382;5.270;2022-12-07T15:06:59;0.10;;;0.10;;
55655;SDS011;41530;52.382;5.270;2022-12-07T15:09:28;0.70;;;0.38;;
55655;SDS011;41530;52.382;5.270;2022-12-07T15:11:55;0.38;;;0.30;;
55655;SDS011;41530;52.382;5.270;2022-12-07T15:14:22;0.82;;;0.40;;
55655;SDS011;41530;52.382;5.270;2022-12-07T15:16:49;1.17;;;0.30;;
55655;SDS011;41530;52.382;5.270;2022-12-07T15:19:35;0.52;;;0.30;;
55655;SDS011;41530;52.382;5.270;2022-12-07T15:22:01;1.13;;;0.30;;
55655;SDS011;41530;52.382;5.270;2022-12-07T15:24:28;1.02;;;0.32;;
55655;SDS011;41530;52.382;5.270;2022-12-07T15:26:55;0.50;;;0.20;;
55655;SDS011;41530;52.382;5.270;2022-12-07T15:29:21;0.40;;;0.30;;
55655;SDS011;41530;52.382;5.270;2022-12-07T15:31:49;0.52;;;0.20;;
55655;SDS011;41530;52.382;5.270;2022-12-07T15:34:23;0.68;;;0.25;;
55655;SDS011;41530;52.382;5.270;2022-12-07T15:36:51;0.65;;;0.30;;
55655;SDS011;41530;52.382;5.270;2022-12-07T15:39:17;1.08;;;0.30;;
55655;SDS011;41530;52.382;5.270;2022-12-07T15:41:44;0.50;;;0.38;;
55655;SDS011;41530;52.382;5.270;2022-12-07T15:44:11;2.30;;;0.40;;
55655;SDS011;41530;52.382;5.270;2022-12-07T15:49:24;0.55;;;0.30;;
55655;SDS011;41530;52.382;5.270;2022-12-07T15:51:51;0.50;;;0.30;;
55655;SDS011;41530;52.382;5.270;2022-12-07T15:54:22;0.57;;;0.30;;
55655;SDS011;41530;52.382;5.270;2022-12-07T15:56:50;0.50;;;0.30;;
55655;SDS011;41530;52.382;5.270;2022-12-07T15:59:18;0.50;;;0.30;;
55655;SDS011;41530;52.382;5.270;2022-12-07T16:01:44;0.40;;;0.25;;
55655;SDS011;41530;52.382;5.270;2022-12-07T16:04:11;0.52;;;0.30;;
55655;SDS011;41530;52.382;5.270;2022-12-07T16:06:38;0.30;;;0.30;;
55655;SDS011;41530;52.382;5.270;2022-12-07T16:09:05;0.57;;;0.25;;
55655;SDS011;41530;52.382;5.270;2022-12-07T16:11:33;2.30;;;0.45;;
55655;SDS011;41530;52.382;5.270;2022-12-07T16:14:00;0.80;;;0.35;;
55655;SDS011;41530;52.382;5.270;2022-12-07T16:16:27;1.38;;;0.30;;
55655;SDS011;41530;52.382;5.270;2022-12-07T16:18:55;1.38;;;0.43;;
55655;SDS011;41530;52.382;5.270;2022-12-07T16:21:22;0.30;;;0.20;;
55655;SDS011;41530;52.382;5.270;2022-12-07T16:23:50;0.60;;;0.30;;
55655;SDS011;41530;52.382;5.270;2022-12-07T16:26:18;0.63;;;0.32;;
55655;SDS011;41530;52.382;5.270;2022-12-07T16:28:50;0.30;;;0.20;;
55655;SDS011;41530;52.382;5.270;2022-12-07T16:31:19;1.92;;;0.35;;
55655;SDS011;41530;52.382;5.270;2022-12-07T16:33:48;0.47;;;0.40;;
55655;SDS011;41530;52.382;5.270;2022-12-07T16:36:16;0.90;;;0.40;;
55655;SDS011;41530;52.382;5.270;2022-12-07T16:39:04;1.10;;;0.38;;
55655;SDS011;41530;52.382;5.270;2022-12-07T16:41:31;0.40;;;0.32;;
55655;SDS011;41530;52.382;5.270;2022-12-07T16:44:05;0.50;;;0.32;;
55655;SDS011;41530;52.382;5.270;2022-12-07T16:46:33;0.98;;;0.50;;
55655;SDS011;41530;52.382;5.270;2022-12-07T16:49:02;1.13;;;0.60;;
55655;SDS011;41530;52.382;5.270;2022-12-07T16:51:30;1.30;;;0.60;;
55655;SDS011;41530;52.382;5.270;2022-12-07T16:53:57;0.88;;;0.57;;
55655;SDS011;41530;52.382;5.270;2022-12-07T16:56:23;1.17;;;0.60;;
55655;SDS011;41530;52.382;5.270;2022-12-07T16:58:52;1.35;;;0.70;;
55655;SDS011;41530;52.382;5.270;2022-12-07T17:01:20;0.80;;;0.55;;
55655;SDS011;41530;52.382;5.270;2022-12-07T17:03:49;1.77;;;0.50;;
55655;SDS011;41530;52.382;5.270;2022-12-07T17:06:17;0.57;;;0.50;;
55655;SDS011;41530;52.382;5.270;2022-12-07T17:08:54;2.13;;;0.60;;
55655;SDS011;41530;52.382;5.270;2022-12-07T17:11:23;1.15;;;0.68;;
55655;SDS011;41530;52.382;5.270;2022-12-07T17:13:51;0.80;;;0.60;;
55655;SDS011;41530;52.382;5.270;2022-12-07T17:16:37;2.90;;;0.70;;
55655;SDS011;41530;52.382;5.270;2022-12-07T17:19:08;1.90;;;0.70;;
55655;SDS011;41530;52.382;5.270;2022-12-07T17:21:36;2.22;;;0.80;;
55655;SDS011;41530;52.382;5.270;2022-12-07T17:24:04;1.33;;;0.70;;
55655;SDS011;41530;52.382;5.270;2022-12-07T17:26:32;3.60;;;1.08;;
55655;SDS011;41530;52.382;5.270;2022-12-07T17:29:01;1.25;;;0.52;;
55655;SDS011;41530;52.382;5.270;2022-12-07T17:31:30;2.03;;;0.80;;
55655;SDS011;41530;52.382;5.270;2022-12-07T17:33:57;1.85;;;0.70;;